createdAt,value
2017-06-10T00:02:07.284Z,18.00
2017-06-10T00:04:34.909Z,17.90
2017-06-10T00:07:02.629Z,17.90
2017-06-10T00:09:30.266Z,17.90
2017-06-10T00:11:58.159Z,17.80
2017-06-10T00:14:25.896Z,17.80
2017-06-10T00:16:53.538Z,17.80
2017-06-10T00:19:21.354Z,17.70
2017-06-10T00:21:49.086Z,17.70
2017-06-10T00:24:16.775Z,17.70
2017-06-10T00:26:44.435Z,17.60
2017-06-10T00:29:12.096Z,17.60
2017-06-10T00:31:39.940Z,17.60
2017-06-10T00:34:07.727Z,17.60
2017-06-10T00:36:35.830Z,17.60
2017-06-10T00:39:05.428Z,17.50
2017-06-10T00:41:33.050Z,17.50
2017-06-10T00:44:00.812Z,17.50
2017-06-10T00:46:28.575Z,17.50
2017-06-10T00:48:56.338Z,17.50
2017-06-10T00:51:23.965Z,17.50
2017-06-10T00:53:51.662Z,17.50
2017-06-10T00:56:19.427Z,17.50
2017-06-10T00:58:47.190Z,17.40
2017-06-10T01:01:15.059Z,17.40
2017-06-10T01:03:42.688Z,17.40
2017-06-10T01:06:10.314Z,17.40
2017-06-10T01:08:38.779Z,17.30
2017-06-10T01:11:06.658Z,17.30
2017-06-10T01:13:35.106Z,17.30
2017-06-10T01:16:02.792Z,17.20
2017-06-10T01:18:30.416Z,17.20
2017-06-10T01:20:58.077Z,17.20
2017-06-10T01:23:25.698Z,17.20
2017-06-10T01:25:54.234Z,17.20
2017-06-10T01:28:21.998Z,17.10
2017-06-10T01:30:49.763Z,17.20
2017-06-10T01:33:17.443Z,17.10
2017-06-10T01:35:45.107Z,17.10
2017-06-10T01:38:12.913Z,17.10
2017-06-10T01:40:40.610Z,17.10
2017-06-10T01:43:08.254Z,17.00
2017-06-10T01:45:36.143Z,17.00
2017-06-10T01:48:03.928Z,17.00
2017-06-10T01:50:31.592Z,17.00
2017-06-10T01:52:59.333Z,17.00
2017-06-10T01:55:27.120Z,17.00
2017-06-10T01:57:54.884Z,16.90
2017-06-10T02:00:22.514Z,16.90
2017-06-10T02:02:50.312Z,16.90
2017-06-10T02:05:17.966Z,16.90
2017-06-10T02:07:45.625Z,16.90
2017-06-10T02:10:13.373Z,16.80
2017-06-10T02:12:40.993Z,16.80
2017-06-10T02:15:08.628Z,16.80
2017-06-10T02:17:36.467Z,16.80
2017-06-10T02:20:04.138Z,16.70
2017-06-10T02:22:31.822Z,16.70
2017-06-10T02:25:00.209Z,16.70
2017-06-10T02:27:28.749Z,16.70
2017-06-10T02:29:56.394Z,16.60
2017-06-10T02:32:24.020Z,16.60
2017-06-10T02:34:52.463Z,16.60
2017-06-10T02:37:20.086Z,16.60
2017-06-10T02:39:47.706Z,16.60
2017-06-10T02:42:16.139Z,16.50
2017-06-10T02:44:43.762Z,16.50
2017-06-10T02:47:12.296Z,16.50
2017-06-10T02:49:39.955Z,16.50
2017-06-10T02:52:07.595Z,16.50
2017-06-10T02:54:35.282Z,16.50
2017-06-10T02:57:02.908Z,16.50
2017-06-10T02:59:30.617Z,16.40
2017-06-10T03:01:58.247Z,16.40
2017-06-10T03:04:25.890Z,16.40
2017-06-10T03:06:53.691Z,16.30
2017-06-10T03:09:21.354Z,16.30
2017-06-10T03:11:49.021Z,16.30
2017-06-10T03:14:16.780Z,16.30
2017-06-10T03:17:01.236Z,16.30
2017-06-10T03:19:28.919Z,16.30
2017-06-10T03:21:56.549Z,16.30
2017-06-10T03:24:24.329Z,16.30
2017-06-10T03:26:52.089Z,16.30
2017-06-10T03:29:19.852Z,16.20
2017-06-10T03:31:47.719Z,16.30
2017-06-10T03:34:15.397Z,16.20
2017-06-10T03:36:43.017Z,16.30
2017-06-10T03:39:10.807Z,16.20
2017-06-10T03:41:38.449Z,16.20
2017-06-10T03:44:06.120Z,16.20
2017-06-10T03:46:33.832Z,16.20
2017-06-10T03:49:02.224Z,16.10
2017-06-10T03:51:30.673Z,16.10
2017-06-10T03:53:58.414Z,16.10
2017-06-10T03:56:26.180Z,16.10
2017-06-10T03:58:53.837Z,16.10
2017-06-10T04:01:21.541Z,16.10
2017-06-10T04:03:49.961Z,16.10
2017-06-10T04:06:17.585Z,16.10
2017-06-10T04:08:46.039Z,16.20
2017-06-10T04:11:14.065Z,16.10
2017-06-10T04:13:41.861Z,16.20
2017-06-10T04:16:09.544Z,16.20
2017-06-10T04:18:37.174Z,16.20
2017-06-10T04:21:04.842Z,16.20
2017-06-10T04:23:32.526Z,16.30
2017-06-10T04:26:00.192Z,16.30
2017-06-10T04:28:27.843Z,16.30
2017-06-10T04:30:55.487Z,16.40
2017-06-10T04:33:23.269Z,16.40
2017-06-10T04:35:50.897Z,16.40
2017-06-10T04:38:18.518Z,16.40
2017-06-10T04:40:47.112Z,16.50
2017-06-10T04:43:15.646Z,16.50
2017-06-10T04:45:43.313Z,16.50
2017-06-10T04:48:11.071Z,16.50
2017-06-10T04:50:38.710Z,16.60
2017-06-10T04:53:06.418Z,16.60
2017-06-10T04:55:34.079Z,16.70
2017-06-10T04:58:01.747Z,16.70
2017-06-10T05:00:29.393Z,16.70
2017-06-10T05:02:57.063Z,16.70
2017-06-10T05:05:24.827Z,16.80
2017-06-10T05:07:52.492Z,16.80
2017-06-10T05:10:20.169Z,16.80
2017-06-10T05:12:48.625Z,16.90
2017-06-10T05:15:16.411Z,16.90
2017-06-10T05:17:46.386Z,17.00
2017-06-10T05:20:14.941Z,17.10
2017-06-10T05:22:42.740Z,17.00
2017-06-10T05:25:10.380Z,17.10
2017-06-10T05:27:38.071Z,17.20
2017-06-10T05:30:05.743Z,17.30
2017-06-10T05:32:33.385Z,17.30
2017-06-10T05:35:01.059Z,17.30
2017-06-10T05:37:28.726Z,17.40
2017-06-10T05:39:56.493Z,17.40
2017-06-10T05:42:24.258Z,17.40
2017-06-10T05:44:51.890Z,17.50
2017-06-10T05:47:19.665Z,17.50
2017-06-10T05:49:47.431Z,17.50
2017-06-10T05:52:15.067Z,17.50
2017-06-10T05:54:42.878Z,17.60
2017-06-10T05:57:10.507Z,17.70
2017-06-10T05:59:38.204Z,17.60
2017-06-10T06:02:05.827Z,17.70
2017-06-10T06:04:33.448Z,17.70
2017-06-10T06:07:01.894Z,17.80
2017-06-10T06:09:29.569Z,17.80
2017-06-10T06:11:57.238Z,17.90
2017-06-10T06:14:25.797Z,18.00
2017-06-10T06:16:53.465Z,17.90
2017-06-10T06:19:21.242Z,18.10
2017-06-10T06:21:48.892Z,18.10
2017-06-10T06:24:16.671Z,18.20
2017-06-10T06:26:45.224Z,18.30
2017-06-10T06:29:12.865Z,18.20
2017-06-10T06:31:40.517Z,18.30
2017-06-10T06:34:08.327Z,18.30
2017-06-10T06:36:36.078Z,18.40
2017-06-10T06:39:03.701Z,18.50
2017-06-10T06:41:31.334Z,18.50
2017-06-10T06:43:59.764Z,18.60
2017-06-10T06:46:27.465Z,18.60
2017-06-10T06:48:55.148Z,18.70
2017-06-10T06:51:23.582Z,18.80
2017-06-10T06:53:51.257Z,18.80
2017-06-10T06:56:19.005Z,18.90
2017-06-10T06:58:46.669Z,18.90
2017-06-10T07:01:14.346Z,19.00
2017-06-10T07:03:41.969Z,19.10
2017-06-10T07:06:09.593Z,19.10
2017-06-10T07:08:38.012Z,19.30
2017-06-10T07:11:05.719Z,19.20
2017-06-10T07:13:33.462Z,19.30
2017-06-10T07:16:01.147Z,19.40
2017-06-10T07:18:28.816Z,19.50
2017-06-10T07:20:56.571Z,19.60
2017-06-10T07:23:24.231Z,19.70
2017-06-10T07:25:51.993Z,19.80
2017-06-10T07:28:19.737Z,19.80
2017-06-10T07:30:47.409Z,19.90
2017-06-10T07:33:15.064Z,20.00
2017-06-10T07:35:42.749Z,20.00
2017-06-10T07:38:10.590Z,20.00
2017-06-10T07:40:38.217Z,20.10
2017-06-10T07:43:06.323Z,20.10
2017-06-10T07:45:34.086Z,20.10
2017-06-10T07:48:01.705Z,20.20
2017-06-10T07:50:29.510Z,20.30
2017-06-10T07:52:57.137Z,20.30
2017-06-10T07:55:24.939Z,20.40
2017-06-10T07:57:52.594Z,20.40
2017-06-10T08:00:20.222Z,20.50
2017-06-10T08:02:47.957Z,20.50
2017-06-10T08:05:16.511Z,20.70
2017-06-10T08:07:44.189Z,20.70
2017-06-10T08:10:11.858Z,20.80
2017-06-10T08:12:39.513Z,20.90
2017-06-10T08:15:07.360Z,21.00
2017-06-10T08:17:35.021Z,21.10
2017-06-10T08:20:02.646Z,21.20
2017-06-10T08:22:30.448Z,21.40
2017-06-10T08:24:58.213Z,21.40
2017-06-10T08:27:26.076Z,21.60
2017-06-10T08:29:53.872Z,21.70
2017-06-10T08:32:21.960Z,21.80
2017-06-10T08:34:49.986Z,21.90
2017-06-10T08:37:17.611Z,22.00
2017-06-10T08:39:45.801Z,22.10
2017-06-10T08:42:13.687Z,22.20
2017-06-10T08:44:41.315Z,22.40
2017-06-10T08:47:09.036Z,22.50
2017-06-10T08:49:36.774Z,22.50
2017-06-10T08:52:04.462Z,22.60
2017-06-10T08:54:32.089Z,22.60
2017-06-10T08:56:59.861Z,22.70
2017-06-10T08:59:27.561Z,22.80
2017-06-10T09:01:56.037Z,22.80
2017-06-10T09:04:24.483Z,22.90
2017-06-10T09:06:52.110Z,22.80
2017-06-10T09:09:19.846Z,22.90
2017-06-10T09:11:48.321Z,23.00
2017-06-10T09:14:15.965Z,22.90
2017-06-10T09:16:43.819Z,23.00
2017-06-10T09:19:11.583Z,23.10
2017-06-10T09:21:39.244Z,23.10
2017-06-10T09:24:06.994Z,23.10
2017-06-10T09:26:34.622Z,23.20
2017-06-10T09:29:03.466Z,23.20
2017-06-10T09:31:31.224Z,23.10
2017-06-10T09:33:59.104Z,23.30
2017-06-10T09:36:26.967Z,23.40
2017-06-10T09:38:54.600Z,23.40
2017-06-10T09:41:22.612Z,23.50
2017-06-10T09:43:50.354Z,23.60
2017-06-10T09:46:18.029Z,23.70
2017-06-10T09:48:45.681Z,23.70
2017-06-10T09:51:13.360Z,23.80
2017-06-10T09:53:41.024Z,23.90
2017-06-10T09:56:08.653Z,24.00
2017-06-10T09:58:36.282Z,24.10
2017-06-10T10:01:03.933Z,24.10
2017-06-10T10:03:32.465Z,24.20
2017-06-10T10:06:00.135Z,24.10
2017-06-10T10:08:27.891Z,24.20
2017-06-10T10:10:55.680Z,24.30
2017-06-10T10:13:23.521Z,24.40
2017-06-10T10:15:51.285Z,24.50
2017-06-10T10:18:18.953Z,24.60
2017-06-10T10:20:46.675Z,24.80
2017-06-10T10:23:14.297Z,24.90
2017-06-10T10:25:42.137Z,25.00
2017-06-10T10:28:09.901Z,25.20
2017-06-10T10:30:37.587Z,25.30
2017-06-10T10:33:05.328Z,25.40
2017-06-10T10:35:33.091Z,25.60
2017-06-10T10:38:00.765Z,25.70
2017-06-10T10:40:28.517Z,25.80
2017-06-10T10:42:56.282Z,25.90
2017-06-10T10:45:24.046Z,26.00
2017-06-10T10:47:51.666Z,26.10
2017-06-10T10:50:19.421Z,26.30
2017-06-10T10:52:48.060Z,26.50
2017-06-10T10:55:15.921Z,26.50
2017-06-10T10:57:43.687Z,26.70
2017-06-10T11:00:11.369Z,26.80
2017-06-10T11:02:39.002Z,26.90
2017-06-10T11:05:06.678Z,27.00
2017-06-10T11:07:34.358Z,27.10
2017-06-10T11:10:02.015Z,27.10
2017-06-10T11:12:29.862Z,27.20
2017-06-10T11:14:57.547Z,27.30
2017-06-10T11:17:25.311Z,27.40
2017-06-10T11:19:52.972Z,27.50
2017-06-10T11:22:20.814Z,27.70
2017-06-10T11:24:48.461Z,27.70
2017-06-10T11:27:16.081Z,27.80
2017-06-10T11:29:44.543Z,28.00
2017-06-10T11:32:12.284Z,27.90
2017-06-10T11:34:39.924Z,28.10
2017-06-10T11:37:07.607Z,28.20
2017-06-10T11:39:35.227Z,28.20
2017-06-10T11:42:03.031Z,28.20
2017-06-10T11:44:30.649Z,28.30
2017-06-10T11:46:58.275Z,28.30
2017-06-10T11:49:25.938Z,28.30
2017-06-10T11:51:53.600Z,28.30
2017-06-10T11:54:21.361Z,28.30
2017-06-10T11:56:49.128Z,28.30
2017-06-10T11:59:16.870Z,28.40
2017-06-10T12:01:44.521Z,28.40
2017-06-10T12:04:12.150Z,28.50
2017-06-10T12:06:39.850Z,28.60
2017-06-10T12:09:07.477Z,28.60
2017-06-10T12:11:35.281Z,28.70
2017-06-10T12:14:03.045Z,28.70
2017-06-10T12:16:30.708Z,28.80
2017-06-10T12:18:58.496Z,28.80
2017-06-10T12:21:26.155Z,28.90
2017-06-10T12:23:53.813Z,28.90
2017-06-10T12:26:21.661Z,29.00
2017-06-10T12:28:49.290Z,29.20
2017-06-10T12:31:17.087Z,29.30
2017-06-10T12:33:44.747Z,29.30
2017-06-10T12:36:12.513Z,29.40
2017-06-10T12:38:40.278Z,29.40
2017-06-10T12:41:07.955Z,29.50
2017-06-10T12:43:35.727Z,29.60
2017-06-10T12:46:03.358Z,29.70
2017-06-10T12:48:31.129Z,29.70
2017-06-10T12:50:58.802Z,29.80
2017-06-10T12:53:26.423Z,29.80
2017-06-10T12:55:54.204Z,29.70
2017-06-10T12:58:21.985Z,29.70
2017-06-10T13:00:49.872Z,29.70
2017-06-10T13:03:17.610Z,29.70
2017-06-10T13:05:45.289Z,29.70
2017-06-10T13:08:13.075Z,29.80
2017-06-10T13:10:41.529Z,29.70
2017-06-10T13:13:09.183Z,29.70
2017-06-10T13:15:36.855Z,29.70
2017-06-10T13:18:04.482Z,29.70
2017-06-10T13:20:32.159Z,29.70
2017-06-10T13:22:59.777Z,29.70
2017-06-10T13:25:27.460Z,29.70
2017-06-10T13:27:55.153Z,29.70
2017-06-10T13:30:22.809Z,29.70
2017-06-10T13:32:50.598Z,29.70
2017-06-10T13:35:18.363Z,29.60
2017-06-10T13:37:45.991Z,29.60
2017-06-10T13:40:13.655Z,29.60
2017-06-10T13:42:41.288Z,29.60
2017-06-10T13:45:09.116Z,29.60
2017-06-10T13:47:36.749Z,29.50
2017-06-10T13:50:04.366Z,29.50
2017-06-10T13:52:32.104Z,29.40
2017-06-10T13:54:59.733Z,29.40
2017-06-10T13:57:27.425Z,29.40
2017-06-10T13:59:55.088Z,29.40
2017-06-10T14:02:22.739Z,29.40
2017-06-10T14:04:50.434Z,29.30
2017-06-10T14:07:18.184Z,29.40
2017-06-10T14:09:45.935Z,29.40
2017-06-10T14:12:13.698Z,29.40
2017-06-10T14:14:41.446Z,29.40
2017-06-10T14:17:09.310Z,29.40
2017-06-10T14:19:36.929Z,29.40
2017-06-10T14:22:04.612Z,29.40
2017-06-10T14:24:32.314Z,29.40
2017-06-10T14:27:00.059Z,29.30
2017-06-10T14:29:27.709Z,29.30
2017-06-10T14:31:55.333Z,29.20
2017-06-10T14:34:23.033Z,29.20
2017-06-10T14:36:50.706Z,29.20
2017-06-10T14:39:18.471Z,29.10
2017-06-10T14:41:46.246Z,29.10
2017-06-10T14:44:13.870Z,29.10
2017-06-10T14:46:41.764Z,29.00
2017-06-10T14:49:09.444Z,29.00
2017-06-10T14:51:37.111Z,28.90
2017-06-10T14:54:04.961Z,28.90
2017-06-10T14:56:32.717Z,28.90
2017-06-10T14:59:00.408Z,28.90
2017-06-10T15:01:28.050Z,28.90
2017-06-10T15:03:55.912Z,28.90
2017-06-10T15:06:23.590Z,28.80
2017-06-10T15:08:51.335Z,28.80
2017-06-10T15:11:19.200Z,28.80
2017-06-10T15:13:46.829Z,28.80
2017-06-10T15:16:14.523Z,28.80
2017-06-10T15:18:42.179Z,28.80
2017-06-10T15:21:10.966Z,28.80
2017-06-10T15:23:38.645Z,28.70
2017-06-10T15:26:06.339Z,28.70
2017-06-10T15:28:34.725Z,28.60
2017-06-10T15:31:02.463Z,28.60
2017-06-10T15:33:30.082Z,28.60
2017-06-10T15:35:57.865Z,28.60
2017-06-10T15:38:25.732Z,28.50
2017-06-10T15:40:53.411Z,28.50
2017-06-10T15:43:21.072Z,28.50
2017-06-10T15:45:48.820Z,28.50
2017-06-10T15:48:16.498Z,28.40
2017-06-10T15:50:44.349Z,28.40
2017-06-10T15:53:12.215Z,28.40
2017-06-10T15:55:39.899Z,28.30
2017-06-10T15:58:07.551Z,28.30
2017-06-10T16:00:35.323Z,28.30
2017-06-10T16:03:02.956Z,28.30
2017-06-10T16:05:30.585Z,28.30
2017-06-10T16:07:58.391Z,28.20
2017-06-10T16:10:26.065Z,28.20
2017-06-10T16:12:53.729Z,28.20
2017-06-10T16:15:21.378Z,28.20
2017-06-10T16:17:49.001Z,28.10
2017-06-10T16:20:16.669Z,28.10
2017-06-10T16:22:44.389Z,28.10
2017-06-10T16:25:12.239Z,28.00
2017-06-10T16:27:39.960Z,28.00
2017-06-10T16:30:07.620Z,27.90
2017-06-10T16:32:35.426Z,27.90
2017-06-10T16:35:03.295Z,27.80
2017-06-10T16:37:31.166Z,27.70
2017-06-10T16:39:59.038Z,27.70
2017-06-10T16:42:26.809Z,27.60
2017-06-10T16:44:54.591Z,27.60
2017-06-10T16:47:23.144Z,27.40
2017-06-10T16:49:50.851Z,27.40
2017-06-10T16:52:18.678Z,27.40
2017-06-10T16:54:46.463Z,27.40
2017-06-10T16:57:14.925Z,27.30
2017-06-10T16:59:42.678Z,27.20
2017-06-10T17:02:10.378Z,27.20
2017-06-10T17:04:38.914Z,27.10
2017-06-10T17:07:06.759Z,27.10
2017-06-10T17:09:34.661Z,27.10
2017-06-10T17:12:02.533Z,27.00
2017-06-10T17:14:30.599Z,27.00
2017-06-10T17:16:58.468Z,26.90
2017-06-10T17:19:26.341Z,26.90
2017-06-10T17:21:54.303Z,26.90
2017-06-10T17:24:22.172Z,26.80
2017-06-10T17:26:50.040Z,26.80
2017-06-10T17:29:17.904Z,26.70
2017-06-10T17:31:45.774Z,26.70
2017-06-10T17:34:13.740Z,26.70
2017-06-10T17:36:41.602Z,26.70
2017-06-10T17:39:09.472Z,26.60
2017-06-10T17:41:37.332Z,26.60
2017-06-10T17:44:07.117Z,26.50
2017-06-10T17:46:34.959Z,26.50
2017-06-10T17:49:02.742Z,26.50
2017-06-10T17:51:30.552Z,26.50
2017-06-10T17:53:58.390Z,26.40
2017-06-10T17:56:26.167Z,26.30
2017-06-10T17:58:53.923Z,26.30
2017-06-10T18:01:21.568Z,26.20
2017-06-10T18:03:49.223Z,26.20
2017-06-10T18:06:16.893Z,26.10
2017-06-10T18:08:44.525Z,26.10
2017-06-10T18:11:12.271Z,26.10
2017-06-10T18:13:39.908Z,26.00
2017-06-10T18:16:07.547Z,26.00
2017-06-10T18:18:35.213Z,26.00
2017-06-10T18:21:02.847Z,26.00
2017-06-10T18:23:30.562Z,25.90
2017-06-10T18:26:08.931Z,25.90
2017-06-10T18:28:36.644Z,25.90
2017-06-10T18:31:05.047Z,25.80
2017-06-10T18:33:33.438Z,25.80
2017-06-10T18:36:01.085Z,25.70
2017-06-10T18:38:29.477Z,25.70
2017-06-10T18:40:57.970Z,25.60
2017-06-10T18:43:25.600Z,25.70
2017-06-10T18:45:53.248Z,25.70
2017-06-10T18:48:20.944Z,25.60
2017-06-10T18:50:48.600Z,25.60
2017-06-10T18:53:16.244Z,25.60
2017-06-10T18:55:44.699Z,25.50
2017-06-10T18:58:12.508Z,25.40
2017-06-10T19:00:40.306Z,25.40
2017-06-10T19:03:08.135Z,25.40
2017-06-10T19:05:35.913Z,25.40
2017-06-10T19:08:03.678Z,25.40
2017-06-10T19:10:31.513Z,25.30
2017-06-10T19:13:00.062Z,25.30
2017-06-10T19:15:27.824Z,25.20
2017-06-10T19:17:55.663Z,25.20
2017-06-10T19:20:23.439Z,25.20
2017-06-10T19:22:51.237Z,25.10
2017-06-10T19:25:19.072Z,25.10
2017-06-10T19:27:46.831Z,25.10
2017-06-10T19:30:14.606Z,25.00
2017-06-10T19:32:42.452Z,25.00
2017-06-10T19:35:10.204Z,25.00
2017-06-10T19:37:37.977Z,24.90
2017-06-10T19:40:05.782Z,24.90
2017-06-10T19:42:33.562Z,24.90
2017-06-10T19:45:01.316Z,24.80
2017-06-10T19:47:29.136Z,24.80
2017-06-10T19:49:56.931Z,24.80
2017-06-10T19:52:24.732Z,24.70
2017-06-10T19:54:53.278Z,24.60
2017-06-10T19:57:21.064Z,24.60
2017-06-10T19:59:48.890Z,24.60
2017-06-10T20:02:16.646Z,24.60
2017-06-10T20:04:44.491Z,24.50
2017-06-10T20:07:12.368Z,24.50
2017-06-10T20:09:40.015Z,24.50
2017-06-10T20:12:08.451Z,24.40
2017-06-10T20:14:36.083Z,24.40
2017-06-10T20:17:03.767Z,24.40
2017-06-10T20:19:31.432Z,24.40
2017-06-10T20:21:59.058Z,24.30
2017-06-10T20:24:26.723Z,24.30
2017-06-10T20:26:54.369Z,24.20
2017-06-10T20:29:22.980Z,24.10
2017-06-10T20:31:50.739Z,24.10
2017-06-10T20:34:18.517Z,24.10
2017-06-10T20:36:47.118Z,24.10
2017-06-10T20:39:14.896Z,24.00
2017-06-10T20:41:42.739Z,24.00
2017-06-10T20:44:10.503Z,24.00
2017-06-10T20:46:38.270Z,23.90
2017-06-10T20:49:06.124Z,23.90
2017-06-10T20:51:34.020Z,23.80
2017-06-10T20:54:01.890Z,23.80
2017-06-10T20:56:29.760Z,23.80
2017-06-10T20:58:57.721Z,23.70
2017-06-10T21:01:25.591Z,23.70
2017-06-10T21:03:53.455Z,23.70
2017-06-10T21:06:21.430Z,23.60
2017-06-10T21:08:49.294Z,23.60
2017-06-10T21:11:16.924Z,23.50
2017-06-10T21:13:45.322Z,23.50
2017-06-10T21:16:13.920Z,23.40
2017-06-10T21:18:41.791Z,23.40
2017-06-10T21:21:09.646Z,23.40
2017-06-10T21:23:37.451Z,23.30
2017-06-10T21:26:06.106Z,23.20
2017-06-10T21:28:33.974Z,23.20
2017-06-10T21:31:01.831Z,23.20
2017-06-10T21:33:29.703Z,23.20
2017-06-10T21:35:57.565Z,23.10
2017-06-10T21:38:25.439Z,23.10
2017-06-10T21:40:53.299Z,23.00
2017-06-10T21:43:21.168Z,23.00
2017-06-10T21:45:49.031Z,22.90
2017-06-10T21:48:16.897Z,22.90
2017-06-10T21:50:44.717Z,22.80
2017-06-10T21:53:12.759Z,22.80
2017-06-10T21:55:40.803Z,22.80
2017-06-10T21:58:08.674Z,22.80
2017-06-10T22:00:36.542Z,22.80
2017-06-10T22:03:04.378Z,22.80
2017-06-10T22:05:32.267Z,22.80
2017-06-10T22:08:00.241Z,22.80
2017-06-10T22:10:28.108Z,22.70
2017-06-10T22:12:55.978Z,22.70
2017-06-10T22:15:23.639Z,22.60
2017-06-10T22:17:51.298Z,22.60
2017-06-10T22:20:18.998Z,22.60
2017-06-10T22:22:47.418Z,22.50
2017-06-10T22:25:15.056Z,22.40
2017-06-10T22:27:42.749Z,22.50
2017-06-10T22:30:10.425Z,22.40
2017-06-10T22:32:38.121Z,22.40
2017-06-10T22:35:06.512Z,22.30
2017-06-10T22:37:34.198Z,22.20
2017-06-10T22:40:01.980Z,22.30
2017-06-10T22:42:29.640Z,22.20
2017-06-10T22:44:57.309Z,22.20
2017-06-10T22:47:24.997Z,22.20
2017-06-10T22:49:52.726Z,22.10
2017-06-10T22:52:20.373Z,22.10
2017-06-10T22:54:47.997Z,22.10
2017-06-10T22:57:15.677Z,22.10
2017-06-10T22:59:43.318Z,22.10
2017-06-10T23:02:10.972Z,22.00
2017-06-10T23:04:39.398Z,22.00
2017-06-10T23:07:07.022Z,21.90
2017-06-10T23:09:35.471Z,21.90
2017-06-10T23:12:03.164Z,21.80
2017-06-10T23:14:30.796Z,21.90
2017-06-10T23:16:58.442Z,21.80
2017-06-10T23:19:26.084Z,21.80
2017-06-10T23:21:53.768Z,21.80
2017-06-10T23:24:21.438Z,21.80
2017-06-10T23:26:49.061Z,21.70
2017-06-10T23:29:16.728Z,21.70
2017-06-10T23:31:44.370Z,21.70
2017-06-10T23:34:12.051Z,21.60
2017-06-10T23:36:39.740Z,21.60
2017-06-10T23:39:07.379Z,21.60
2017-06-10T23:41:35.033Z,21.60
2017-06-10T23:44:02.671Z,21.50
2017-06-10T23:46:31.115Z,21.50
2017-06-10T23:48:58.742Z,21.40
2017-06-10T23:51:26.400Z,21.50
2017-06-10T23:53:54.084Z,21.50
2017-06-10T23:56:22.292Z,21.40
2017-06-10T23:58:49.985Z,21.40
